Time,TemperatureF,DewpointF,PressureIn,WindDirection,WindDirectionDegrees,WindSpeedMPH,WindSpeedGustMPH,Humidity,HourlyPrecipIn,Conditions,Clouds,dailyrainin,SoftwareType,DateUTC
2013-05-08 00:14:00,52.5,49.7,29.87,SSW,202,1.1,-999.0,90,-99.99,,,0.00,Acu-Link.com,2013-05-08 04:14:00,
2013-05-08 00:29:00,52.2,49.4,29.87,ENE,67,0.0,-999.0,90,-99.99,,,0.00,Acu-Link.com,2013-05-08 04:29:00,
2013-05-08 00:45:00,51.6,49.4,29.88,NE,45,0.0,-999.0,92,-99.99,,,0.00,Acu-Link.com,2013-05-08 04:45:00,
2013-05-08 01:00:00,51.4,49.7,29.87,West,270,0.0,-999.0,94,-99.99,,,0.00,Acu-Link.com,2013-05-08 05:00:00,
2013-05-08 01:15:00,51.3,49.9,29.87,West,270,0.0,-999.0,95,-99.99,,,0.00,Acu-Link.com,2013-05-08 05:15:00,
2013-05-08 01:30:00,51.1,49.7,29.87,West,270,0.0,-999.0,95,-99.99,,,0.00,Acu-Link.com,2013-05-08 05:30:00,
2013-05-08 01:46:00,51.1,50.0,29.87,ESE,112,0.0,-999.0,96,-99.99,,,0.00,Acu-Link.com,2013-05-08 05:46:00,
2013-05-08 02:01:00,50.7,49.3,29.86,SW,225,0.0,-999.0,95,-99.99,,,0.00,Acu-Link.com,2013-05-08 06:01:00,
2013-05-08 02:16:00,50.2,49.1,29.86,NE,45,0.0,-999.0,96,-99.99,,,0.00,Acu-Link.com,2013-05-08 06:16:00,
2013-05-08 02:31:00,49.8,49.0,29.85,SW,225,0.0,-999.0,97,-99.99,,,0.00,Acu-Link.com,2013-05-08 06:31:00,
2013-05-08 02:47:00,48.7,48.2,29.85,WSW,247,0.0,-999.0,98,-99.99,,,0.00,Acu-Link.com,2013-05-08 06:47:00,
2013-05-08 03:02:00,48.9,48.6,29.85,SSE,157,0.0,-999.0,99,-99.99,,,0.00,Acu-Link.com,2013-05-08 07:02:00,
2013-05-08 03:17:00,48.7,48.4,29.85,SE,135,0.0,-999.0,99,-99.99,,,0.00,Acu-Link.com,2013-05-08 07:17:00,
2013-05-08 03:33:00,49.3,49.0,29.85,SSW,202,0.0,-999.0,99,-99.99,,,0.00,Acu-Link.com,2013-05-08 07:33:00,
2013-05-08 03:48:00,48.7,48.4,29.85,SW,225,0.0,-999.0,99,-99.99,,,0.00,Acu-Link.com,2013-05-08 07:48:00,
2013-05-08 04:03:00,49.1,48.8,29.85,SSE,157,0.0,-999.0,99,-99.99,,,0.00,Acu-Link.com,2013-05-08 08:03:00,
2013-05-08 04:18:00,49.3,49.0,29.86,East,90,0.0,-999.0,99,-99.99,,,0.00,Acu-Link.com,2013-05-08 08:18:00,
2013-05-08 04:33:00,48.7,48.4,29.86,NE,45,0.0,-999.0,99,-99.99,,,0.00,Acu-Link.com,2013-05-08 08:33:00,
2013-05-08 04:48:00,48.7,48.4,29.87,SW,225,0.0,-999.0,99,-99.99,,,0.00,Acu-Link.com,2013-05-08 08:48:00,
2013-05-08 05:03:00,48.7,48.4,29.88,East,90,0.0,-999.0,99,-99.99,,,0.00,Acu-Link.com,2013-05-08 09:03:00,
2013-05-08 05:19:00,48.9,48.6,29.88,ESE,112,0.0,-999.0,99,-99.99,,,0.00,Acu-Link.com,2013-05-08 09:19:00,
2013-05-08 05:34:00,49.1,48.8,29.87,South,180,0.0,-999.0,99,-99.99,,,0.00,Acu-Link.com,2013-05-08 09:34:00,
2013-05-08 05:49:00,49.3,49.0,29.88,SSE,157,0.0,-999.0,99,-99.99,,,0.00,Acu-Link.com,2013-05-08 09:49:00,
2013-05-08 06:04:00,49.3,49.0,29.88,East,90,0.0,-999.0,99,-99.99,,,0.00,Acu-Link.com,2013-05-08 10:04:00,
2013-05-08 06:19:00,49.6,49.3,29.88,ESE,112,0.0,-999.0,99,-99.99,,,0.00,Acu-Link.com,2013-05-08 10:19:00,
2013-05-08 06:35:00,49.6,49.3,29.89,NE,45,0.0,-999.0,99,-99.99,,,0.00,Acu-Link.com,2013-05-08 10:35:00,
2013-05-08 06:50:00,49.8,49.5,29.90,West,270,0.0,-999.0,99,-99.99,,,0.00,Acu-Link.com,2013-05-08 10:50:00,
2013-05-08 07:05:00,50.4,50.1,29.91,SE,135,0.0,-999.0,99,-99.99,,,0.01,Acu-Link.com,2013-05-08 11:05:00,
2013-05-08 07:21:00,50.4,50.1,29.92,South,180,0.0,-999.0,99,-99.99,,,0.01,Acu-Link.com,2013-05-08 11:21:00,
2013-05-08 07:36:00,50.9,50.6,29.92,South,180,0.0,-999.0,99,-99.99,,,0.01,Acu-Link.com,2013-05-08 11:36:00,
2013-05-08 07:51:00,50.9,50.6,29.93,SE,135,0.0,-999.0,99,-99.99,,,0.01,Acu-Link.com,2013-05-08 11:51:00,
2013-05-08 08:07:00,51.8,51.5,29.92,SSE,157,0.0,-999.0,99,-99.99,,,0.01,Acu-Link.com,2013-05-08 12:07:00,
2013-05-08 08:22:00,52.7,52.4,29.93,East,90,0.0,-999.0,99,-99.99,,,0.01,Acu-Link.com,2013-05-08 12:22:00,
2013-05-08 08:37:00,54.0,53.7,29.94,SW,225,0.0,-999.0,99,-99.99,,,0.01,Acu-Link.com,2013-05-08 12:37:00,
2013-05-08 08:52:00,54.7,54.4,29.94,SSW,202,0.0,-999.0,99,-99.99,,,0.01,Acu-Link.com,2013-05-08 12:52:00,
2013-05-08 09:08:00,55.8,55.2,29.94,SSW,202,0.0,-999.0,98,-99.99,,,0.01,Acu-Link.com,2013-05-08 13:08:00,
2013-05-08 09:23:00,57.2,56.4,29.94,SE,135,0.0,-999.0,97,-99.99,,,0.01,Acu-Link.com,2013-05-08 13:23:00,
2013-05-08 09:38:00,57.9,56.2,29.94,NE,45,0.0,-999.0,94,-99.99,,,0.01,Acu-Link.com,2013-05-08 13:38:00,
2013-05-08 09:54:00,58.3,56.3,29.95,NE,45,2.7,-999.0,93,-99.99,,,0.01,Acu-Link.com,2013-05-08 13:54:00,
2013-05-08 10:09:00,57.9,55.6,29.95,NE,45,1.1,-999.0,92,-99.99,,,0.01,Acu-Link.com,2013-05-08 14:09:00,
2013-05-08 10:24:00,58.8,56.8,29.95,East,90,3.7,-999.0,93,-99.99,,,0.01,Acu-Link.com,2013-05-08 14:24:00,
2013-05-08 10:40:00,60.4,57.5,29.95,East,90,2.7,-999.0,90,-99.99,,,0.01,Acu-Link.com,2013-05-08 14:40:00,
2013-05-08 10:55:00,61.3,57.1,29.95,NNW,337,2.2,-999.0,86,-99.99,,,0.01,Acu-Link.com,2013-05-08 14:55:00,
2013-05-08 11:10:00,62.6,57.4,29.95,SE,135,4.7,-999.0,83,-99.99,,,0.01,Acu-Link.com,2013-05-08 15:10:00,
2013-05-08 11:25:00,64.6,57.2,29.96,ESE,112,2.7,-999.0,77,-99.99,,,0.01,Acu-Link.com,2013-05-08 15:25:00,
2013-05-08 11:41:00,65.3,57.5,29.96,NE,45,4.7,-999.0,76,-99.99,,,0.01,Acu-Link.com,2013-05-08 15:41:00,
2013-05-08 11:56:00,65.7,57.2,29.95,East,90,4.2,-999.0,74,-99.99,,,0.01,Acu-Link.com,2013-05-08 15:56:00,
2013-05-08 12:11:00,65.7,56.8,29.96,ENE,67,4.2,-999.0,73,-99.99,,,0.01,Acu-Link.com,2013-05-08 16:11:00,
2013-05-08 12:27:00,64.4,57.0,29.95,ESE,112,2.7,-999.0,77,-99.99,,,0.01,Acu-Link.com,2013-05-08 16:27:00,
2013-05-08 12:42:00,63.9,55.8,29.95,East,90,4.2,-999.0,75,-99.99,,,0.01,Acu-Link.com,2013-05-08 16:42:00,
2013-05-08 12:57:00,63.0,56.0,29.96,NE,45,2.7,-999.0,78,-99.99,,,0.01,Acu-Link.com,2013-05-08 16:57:00,
2013-05-08 13:12:00,65.7,56.8,29.95,East,90,3.2,-999.0,73,-99.99,,,0.01,Acu-Link.com,2013-05-08 17:12:00,
2013-05-08 13:28:00,65.7,56.4,29.95,NE,45,2.7,-999.0,72,-99.99,,,0.01,Acu-Link.com,2013-05-08 17:28:00,
2013-05-08 13:43:00,65.8,55.3,29.95,WSW,247,3.2,-999.0,69,-99.99,,,0.01,Acu-Link.com,2013-05-08 17:43:00,
2013-05-08 13:58:00,65.7,56.4,29.95,NE,45,2.7,-999.0,72,-99.99,,,0.01,Acu-Link.com,2013-05-08 17:58:00,
2013-05-08 14:13:00,65.3,55.6,29.94,NNE,22,2.2,-999.0,71,-99.99,,,0.01,Acu-Link.com,2013-05-08 18:13:00,
2013-05-08 14:28:00,65.7,56.4,29.94,NE,45,2.7,-999.0,72,-99.99,,,0.01,Acu-Link.com,2013-05-08 18:28:00,
2013-05-08 14:44:00,66.0,56.3,29.94,East,90,2.7,-999.0,71,-99.99,,,0.01,Acu-Link.com,2013-05-08 18:44:00,
2013-05-08 14:59:00,66.0,55.9,29.94,ENE,67,3.2,-999.0,70,-99.99,,,0.01,Acu-Link.com,2013-05-08 18:59:00,
2013-05-08 15:15:00,67.6,56.2,29.94,NNE,22,2.7,-999.0,67,-99.99,,,0.01,Acu-Link.com,2013-05-08 19:15:00,
2013-05-08 15:30:00,67.8,56.8,29.94,ENE,67,2.2,-999.0,68,-99.99,,,0.01,Acu-Link.com,2013-05-08 19:30:00,
2013-05-08 15:45:00,68.7,56.5,29.93,ESE,112,3.2,-999.0,65,-99.99,,,0.01,Acu-Link.com,2013-05-08 19:45:00,
2013-05-08 16:01:00,68.7,56.0,29.93,NNE,22,2.7,-999.0,64,-99.99,,,0.01,Acu-Link.com,2013-05-08 20:01:00,
2013-05-08 16:16:00,67.8,56.8,29.93,ENE,67,2.7,-999.0,68,-99.99,,,0.01,Acu-Link.com,2013-05-08 20:16:00,
2013-05-08 16:31:00,67.3,55.5,29.93,NNE,22,1.7,-999.0,66,-99.99,,,0.01,Acu-Link.com,2013-05-08 20:31:00,
2013-05-08 16:46:00,67.3,56.4,29.93,ENE,67,1.1,-999.0,68,-99.99,,,0.01,Acu-Link.com,2013-05-08 20:46:00,
2013-05-08 17:02:00,68.2,55.1,29.93,East,90,2.7,-999.0,63,-99.99,,,0.01,Acu-Link.com,2013-05-08 21:02:00,
2013-05-08 17:17:00,67.3,55.1,29.92,NNE,22,1.7,-999.0,65,-99.99,,,0.01,Acu-Link.com,2013-05-08 21:17:00,
2013-05-08 17:32:00,67.1,55.8,29.92,SW,225,3.7,-999.0,67,-99.99,,,0.01,Acu-Link.com,2013-05-08 21:32:00,
2013-05-08 17:47:00,68.4,55.7,29.92,NW,315,3.7,-999.0,64,-99.99,,,0.01,Acu-Link.com,2013-05-08 21:47:00,
2013-05-08 18:02:00,67.6,54.5,29.92,West,270,0.0,-999.0,63,-99.99,,,0.01,Acu-Link.com,2013-05-08 22:02:00,
2013-05-08 18:17:00,67.3,55.5,29.92,NNE,22,1.1,-999.0,66,-99.99,,,0.01,Acu-Link.com,2013-05-08 22:17:00,
2013-05-08 18:33:00,66.7,55.4,29.92,NNE,22,1.7,-999.0,67,-99.99,,,0.01,Acu-Link.com,2013-05-08 22:33:00,
2013-05-08 18:48:00,66.0,55.1,29.92,ESE,112,2.2,-999.0,68,-99.99,,,0.01,Acu-Link.com,2013-05-08 22:48:00,
2013-05-08 19:03:00,65.7,55.6,29.91,East,90,2.7,-999.0,70,-99.99,,,0.01,Acu-Link.com,2013-05-08 23:03:00,
2013-05-08 19:19:00,64.9,55.7,29.92,East,90,1.1,-999.0,72,-99.99,,,0.01,Acu-Link.com,2013-05-08 23:19:00,
2013-05-08 19:34:00,64.6,56.1,29.92,ENE,67,0.0,-999.0,74,-99.99,,,0.01,Acu-Link.com,2013-05-08 23:34:00,
2013-05-08 19:49:00,64.4,56.3,29.93,WNW,292,0.0,-999.0,75,-99.99,,,0.01,Acu-Link.com,2013-05-08 23:49:00,
2013-05-08 20:05:00,64.2,56.8,29.93,WNW,292,0.0,-999.0,77,-99.99,,,0.01,Acu-Link.com,2013-05-09 00:05:00,
2013-05-08 20:20:00,64.0,56.6,29.94,NNE,22,0.0,-999.0,77,-99.99,,,0.01,Acu-Link.com,2013-05-09 00:20:00,
2013-05-08 20:35:00,63.3,56.0,29.95,NW,315,0.0,-999.0,77,-99.99,,,0.01,Acu-Link.com,2013-05-09 00:35:00,
2013-05-08 20:50:00,62.8,55.8,29.95,NE,45,1.7,-999.0,78,-99.99,,,0.01,Acu-Link.com,2013-05-09 00:50:00,
2013-05-08 21:06:00,62.2,56.0,29.95,West,270,0.0,-999.0,80,-99.99,,,0.01,Acu-Link.com,2013-05-09 01:06:00,
2013-05-08 21:21:00,61.5,55.6,29.96,NW,315,0.0,-999.0,81,-99.99,,,0.01,Acu-Link.com,2013-05-09 01:21:00,
2013-05-08 21:36:00,60.6,56.1,29.96,WNW,292,0.0,-999.0,85,-99.99,,,0.01,Acu-Link.com,2013-05-09 01:36:00,
2013-05-08 21:52:00,59.9,55.7,29.97,West,270,0.0,-999.0,86,-99.99,,,0.01,Acu-Link.com,2013-05-09 01:52:00,
2013-05-08 22:07:00,59.2,55.6,29.97,ESE,112,0.0,-999.0,88,-99.99,,,0.01,Acu-Link.com,2013-05-09 02:07:00,
2013-05-08 22:22:00,58.3,55.4,29.98,SSW,202,0.0,-999.0,90,-99.99,,,0.01,Acu-Link.com,2013-05-09 02:22:00,
2013-05-08 22:38:00,58.1,55.8,29.98,SW,225,0.0,-999.0,92,-99.99,,,0.01,Acu-Link.com,2013-05-09 02:38:00,
2013-05-08 22:53:00,56.8,55.1,29.99,NW,315,0.0,-999.0,94,-99.99,,,0.01,Acu-Link.com,2013-05-09 02:53:00,
2013-05-08 23:08:00,56.5,55.1,29.98,South,180,0.0,-999.0,95,-99.99,,,0.01,Acu-Link.com,2013-05-09 03:08:00,
2013-05-08 23:23:00,55.8,54.4,29.98,NE,45,0.0,-999.0,95,-99.99,,,0.01,Acu-Link.com,2013-05-09 03:23:00,
2013-05-08 23:39:00,55.4,54.8,29.99,West,270,0.0,-999.0,98,-99.99,,,0.01,Acu-Link.com,2013-05-09 03:39:00,
2013-05-08 23:54:00,55.0,54.7,29.99,SSW,202,0.0,-999.0,99,-99.99,,,0.01,Acu-Link.com,2013-05-09 03:54:00,